sensor_id;sensor_type;location;lat;lon;timestamp;P1;durP1;ratioP1;P2;durP2;ratioP2
7931;SDS011;4011;49.424;10.894;2023-11-22T00:01:32;3.45;;;1.80;;
7931;SDS011;4011;49.424;10.894;2023-11-22T00:06:55;3.17;;;1.60;;
7931;SDS011;4011;49.424;10.894;2023-11-22T00:12:17;3.63;;;1.90;;
7931;SDS011;4011;49.424;10.894;2023-11-22T00:17:38;3.30;;;1.90;;
7931;SDS011;4011;49.424;10.894;2023-11-22T00:23:01;3.67;;;2.00;;
7931;SDS011;4011;49.424;10.894;2023-11-22T00:28:23;3.65;;;2.20;;
7931;SDS011;4011;49.424;10.894;2023-11-22T00:33:44;4.53;;;2.20;;
7931;SDS011;4011;49.424;10.894;2023-11-22T00:39:08;3.38;;;2.00;;
7931;SDS011;4011;49.424;10.894;2023-11-22T00:44:29;3.13;;;2.00;;
7931;SDS011;4011;49.424;10.894;2023-11-22T00:49:50;4.32;;;2.00;;
7931;SDS011;4011;49.424;10.894;2023-11-22T00:55:14;3.50;;;2.03;;
7931;SDS011;4011;49.424;10.894;2023-11-22T01:00:35;3.67;;;2.33;;
7931;SDS011;4011;49.424;10.894;2023-11-22T01:05:56;3.58;;;1.98;;
7931;SDS011;4011;49.424;10.894;2023-11-22T01:11:19;3.30;;;2.10;;
7931;SDS011;4011;49.424;10.894;2023-11-22T01:16:41;3.00;;;2.03;;
7931;SDS011;4011;49.424;10.894;2023-11-22T01:22:03;2.88;;;2.10;;
7931;SDS011;4011;49.424;10.894;2023-11-22T01:27:26;3.60;;;2.17;;
7931;SDS011;4011;49.424;10.894;2023-11-22T01:32:47;3.97;;;2.20;;
7931;SDS011;4011;49.424;10.894;2023-11-22T01:38:09;3.33;;;2.10;;
7931;SDS011;4011;49.424;10.894;2023-11-22T01:43:32;3.20;;;2.03;;
7931;SDS011;4011;49.424;10.894;2023-11-22T01:48:53;3.50;;;2.20;;
7931;SDS011;4011;49.424;10.894;2023-11-22T01:54:15;3.58;;;2.33;;
7931;SDS011;4011;49.424;10.894;2023-11-22T01:59:38;3.20;;;2.20;;
7931;SDS011;4011;49.424;10.894;2023-11-22T02:05:01;3.58;;;2.20;;
7931;SDS011;4011;49.424;10.894;2023-11-22T02:10:23;3.90;;;2.30;;
7931;SDS011;4011;49.424;10.894;2023-11-22T02:15:46;3.35;;;2.13;;
7931;SDS011;4011;49.424;10.894;2023-11-22T02:21:07;3.30;;;2.25;;
7931;SDS011;4011;49.424;10.894;2023-11-22T02:26:30;3.70;;;2.40;;
7931;SDS011;4011;49.424;10.894;2023-11-22T02:31:51;3.30;;;2.22;;
7931;SDS011;4011;49.424;10.894;2023-11-22T02:37:12;3.63;;;2.28;;
7931;SDS011;4011;49.424;10.894;2023-11-22T02:42:36;3.60;;;2.20;;
7931;SDS011;4011;49.424;10.894;2023-11-22T02:47:58;4.00;;;2.60;;
7931;SDS011;4011;49.424;10.894;2023-11-22T02:53:21;3.25;;;2.15;;
7931;SDS011;4011;49.424;10.894;2023-11-22T02:58:44;3.70;;;2.30;;
7931;SDS011;4011;49.424;10.894;2023-11-22T03:04:05;3.92;;;2.30;;
7931;SDS011;4011;49.424;10.894;2023-11-22T03:09:27;3.80;;;2.03;;
7931;SDS011;4011;49.424;10.894;2023-11-22T03:14:50;3.40;;;2.35;;
7931;SDS011;4011;49.424;10.894;2023-11-22T03:20:11;3.15;;;2.10;;
7931;SDS011;4011;49.424;10.894;2023-11-22T03:25:33;3.67;;;2.30;;
7931;SDS011;4011;49.424;10.894;2023-11-22T03:30:55;3.45;;;2.10;;
7931;SDS011;4011;49.424;10.894;2023-11-22T03:36:17;3.40;;;2.30;;
7931;SDS011;4011;49.424;10.894;2023-11-22T03:41:38;3.90;;;2.38;;
7931;SDS011;4011;49.424;10.894;2023-11-22T03:47:01;3.30;;;2.20;;
7931;SDS011;4011;49.424;10.894;2023-11-22T03:52:22;3.17;;;2.20;;
7931;SDS011;4011;49.424;10.894;2023-11-22T03:57:44;3.40;;;2.10;;
7931;SDS011;4011;49.424;10.894;2023-11-22T04:03:07;4.20;;;2.40;;
7931;SDS011;4011;49.424;10.894;2023-11-22T04:08:28;3.20;;;2.13;;
7931;SDS011;4011;49.424;10.894;2023-11-22T04:13:49;3.35;;;2.20;;
7931;SDS011;4011;49.424;10.894;2023-11-22T04:19:12;3.80;;;2.40;;
7931;SDS011;4011;49.424;10.894;2023-11-22T04:24:33;3.00;;;2.10;;
7931;SDS011;4011;49.424;10.894;2023-11-22T04:29:55;3.28;;;2.22;;
7931;SDS011;4011;49.424;10.894;2023-11-22T04:35:17;3.10;;;2.00;;
7931;SDS011;4011;49.424;10.894;2023-11-22T04:40:39;3.15;;;2.05;;
7931;SDS011;4011;49.424;10.894;2023-11-22T04:46:00;3.40;;;2.10;;
7931;SDS011;4011;49.424;10.894;2023-11-22T04:51:23;3.53;;;2.33;;
7931;SDS011;4011;49.424;10.894;2023-11-22T04:56:44;3.38;;;2.08;;
7931;SDS011;4011;49.424;10.894;2023-11-22T05:02:06;3.22;;;2.20;;
7931;SDS011;4011;49.424;10.894;2023-11-22T05:07:28;3.13;;;2.10;;
7931;SDS011;4011;49.424;10.894;2023-11-22T05:12:50;3.15;;;2.15;;
7931;SDS011;4011;49.424;10.894;2023-11-22T05:18:11;3.05;;;2.00;;
7931;SDS011;4011;49.424;10.894;2023-11-22T05:23:34;3.30;;;2.30;;
7931;SDS011;4011;49.424;10.894;2023-11-22T05:28:57;3.25;;;2.17;;
7931;SDS011;4011;49.424;10.894;2023-11-22T05:34:19;3.22;;;2.20;;
7931;SDS011;4011;49.424;10.894;2023-11-22T05:39:42;3.50;;;2.20;;
7931;SDS011;4011;49.424;10.894;2023-11-22T05:45:05;4.65;;;2.30;;
7931;SDS011;4011;49.424;10.894;2023-11-22T05:50:28;3.45;;;2.28;;
7931;SDS011;4011;49.424;10.894;2023-11-22T05:55:50;5.70;;;2.40;;
7931;SDS011;4011;49.424;10.894;2023-11-22T06:01:12;36.90;;;9.48;;
7931;SDS011;4011;49.424;10.894;2023-11-22T06:06:34;10.20;;;3.70;;
7931;SDS011;4011;49.424;10.894;2023-11-22T06:11:56;9.07;;;3.70;;
7931;SDS011;4011;49.424;10.894;2023-11-22T06:17:18;9.32;;;3.75;;
7931;SDS011;4011;49.424;10.894;2023-11-22T06:22:39;7.63;;;3.50;;
7931;SDS011;4011;49.424;10.894;2023-11-22T06:28:03;12.07;;;3.50;;
7931;SDS011;4011;49.424;10.894;2023-11-22T06:33:25;6.80;;;3.67;;
7931;SDS011;4011;49.424;10.894;2023-11-22T06:38:46;6.47;;;3.50;;
7931;SDS011;4011;49.424;10.894;2023-11-22T06:44:09;8.40;;;3.80;;
7931;SDS011;4011;49.424;10.894;2023-11-22T06:49:30;5.85;;;3.08;;
7931;SDS011;4011;49.424;10.894;2023-11-22T06:54:52;6.25;;;3.33;;
7931;SDS011;4011;49.424;10.894;2023-11-22T07:00:15;6.85;;;3.40;;
7931;SDS011;4011;49.424;10.894;2023-11-22T07:05:37;5.28;;;3.47;;
7931;SDS011;4011;49.424;10.894;2023-11-22T07:10:58;6.10;;;3.30;;
7931;SDS011;4011;49.424;10.894;2023-11-22T07:16:22;4.80;;;3.50;;
7931;SDS011;4011;49.424;10.894;2023-11-22T07:21:44;4.35;;;3.08;;
7931;SDS011;4011;49.424;10.894;2023-11-22T07:27:08;6.07;;;3.45;;
7931;SDS011;4011;49.424;10.894;2023-11-22T07:32:33;5.90;;;3.50;;
7931;SDS011;4011;49.424;10.894;2023-11-22T07:37:55;5.13;;;3.38;;
7931;SDS011;4011;49.424;10.894;2023-11-22T07:43:17;7.75;;;3.47;;
7931;SDS011;4011;49.424;10.894;2023-11-22T07:48:41;5.57;;;3.60;;
7931;SDS011;4011;49.424;10.894;2023-11-22T07:54:02;5.38;;;3.45;;
7931;SDS011;4011;49.424;10.894;2023-11-22T07:59:25;4.60;;;3.17;;
7931;SDS011;4011;49.424;10.894;2023-11-22T08:04:48;5.70;;;3.60;;
7931;SDS011;4011;49.424;10.894;2023-11-22T08:10:11;7.55;;;3.90;;
7931;SDS011;4011;49.424;10.894;2023-11-22T08:15:40;4.93;;;3.30;;
7931;SDS011;4011;49.424;10.894;2023-11-22T08:21:04;4.32;;;3.33;;
7931;SDS011;4011;49.424;10.894;2023-11-22T08:26:44;5.90;;;3.78;;
7931;SDS011;4011;49.424;10.894;2023-11-22T08:32:06;6.32;;;3.58;;
7931;SDS011;4011;49.424;10.894;2023-11-22T08:37:29;4.93;;;3.75;;
7931;SDS011;4011;49.424;10.894;2023-11-22T08:42:55;5.80;;;3.80;;
7931;SDS011;4011;49.424;10.894;2023-11-22T08:48:16;5.90;;;3.78;;
7931;SDS011;4011;49.424;10.894;2023-11-22T08:53:39;7.38;;;4.10;;
7931;SDS011;4011;49.424;10.894;2023-11-22T08:59:00;5.50;;;3.50;;
7931;SDS011;4011;49.424;10.894;2023-11-22T09:04:22;5.32;;;3.78;;
7931;SDS011;4011;49.424;10.894;2023-11-22T09:09:47;6.28;;;3.60;;
7931;SDS011;4011;49.424;10.894;2023-11-22T09:15:09;5.25;;;3.70;;
7931;SDS011;4011;49.424;10.894;2023-11-22T09:20:31;5.25;;;3.67;;
7931;SDS011;4011;49.424;10.894;2023-11-22T09:25:53;5.30;;;3.28;;
7931;SDS011;4011;49.424;10.894;2023-11-22T09:31:15;4.93;;;3.70;;
7931;SDS011;4011;49.424;10.894;2023-11-22T09:36:40;5.35;;;3.60;;
7931;SDS011;4011;49.424;10.894;2023-11-22T09:42:03;5.70;;;4.00;;
7931;SDS011;4011;49.424;10.894;2023-11-22T09:47:24;5.20;;;3.60;;
7931;SDS011;4011;49.424;10.894;2023-11-22T09:52:47;6.03;;;4.00;;
7931;SDS011;4011;49.424;10.894;2023-11-22T09:58:12;5.53;;;4.00;;
7931;SDS011;4011;49.424;10.894;2023-11-22T10:03:34;6.55;;;3.90;;
7931;SDS011;4011;49.424;10.894;2023-11-22T10:08:56;5.35;;;3.83;;
7931;SDS011;4011;49.424;10.894;2023-11-22T10:14:23;5.90;;;3.80;;
7931;SDS011;4011;49.424;10.894;2023-11-22T10:19:46;5.15;;;3.42;;
7931;SDS011;4011;49.424;10.894;2023-11-22T10:25:08;5.20;;;4.03;;
7931;SDS011;4011;49.424;10.894;2023-11-22T10:30:32;5.78;;;4.18;;
7931;SDS011;4011;49.424;10.894;2023-11-22T10:35:54;5.75;;;3.80;;
7931;SDS011;4011;49.424;10.894;2023-11-22T10:41:16;5.80;;;3.78;;
7931;SDS011;4011;49.424;10.894;2023-11-22T10:46:39;6.38;;;4.30;;
7931;SDS011;4011;49.424;10.894;2023-11-22T10:52:01;5.18;;;3.60;;
7931;SDS011;4011;49.424;10.894;2023-11-22T10:57:25;5.22;;;4.00;;
7931;SDS011;4011;49.424;10.894;2023-11-22T11:02:51;6.25;;;3.90;;
7931;SDS011;4011;49.424;10.894;2023-11-22T11:08:13;5.13;;;3.83;;
7931;SDS011;4011;49.424;10.894;2023-11-22T11:13:36;5.55;;;3.72;;
7931;SDS011;4011;49.424;10.894;2023-11-22T11:18:59;5.50;;;3.83;;
7931;SDS011;4011;49.424;10.894;2023-11-22T11:24:21;5.53;;;3.90;;
7931;SDS011;4011;49.424;10.894;2023-11-22T11:29:42;5.15;;;3.90;;
7931;SDS011;4011;49.424;10.894;2023-11-22T11:35:06;5.68;;;4.13;;
7931;SDS011;4011;49.424;10.894;2023-11-22T11:40:31;6.50;;;3.80;;
7931;SDS011;4011;49.424;10.894;2023-11-22T11:45:52;6.38;;;3.88;;
7931;SDS011;4011;49.424;10.894;2023-11-22T11:51:16;5.10;;;3.53;;
7931;SDS011;4011;49.424;10.894;2023-11-22T11:56:37;5.68;;;4.15;;
7931;SDS011;4011;49.424;10.894;2023-11-22T12:01:59;4.88;;;3.80;;
7931;SDS011;4011;49.424;10.894;2023-11-22T12:07:22;4.43;;;3.25;;
7931;SDS011;4011;49.424;10.894;2023-11-22T12:12:43;5.78;;;4.05;;
7931;SDS011;4011;49.424;10.894;2023-11-22T12:18:06;5.38;;;3.90;;
7931;SDS011;4011;49.424;10.894;2023-11-22T12:23:29;5.18;;;3.58;;
7931;SDS011;4011;49.424;10.894;2023-11-22T12:28:50;5.10;;;3.78;;
7931;SDS011;4011;49.424;10.894;2023-11-22T12:34:14;5.40;;;3.75;;
7931;SDS011;4011;49.424;10.894;2023-11-22T12:39:37;5.10;;;3.58;;
7931;SDS011;4011;49.424;10.894;2023-11-22T12:44:58;6.05;;;3.92;;
7931;SDS011;4011;49.424;10.894;2023-11-22T12:50:29;4.63;;;3.58;;
7931;SDS011;4011;49.424;10.894;2023-11-22T12:55:53;5.78;;;4.40;;
7931;SDS011;4011;49.424;10.894;2023-11-22T13:01:14;5.07;;;3.90;;
7931;SDS011;4011;49.424;10.894;2023-11-22T13:06:36;4.80;;;3.75;;
7931;SDS011;4011;49.424;10.894;2023-11-22T13:11:59;6.53;;;3.78;;
7931;SDS011;4011;49.424;10.894;2023-11-22T13:17:20;6.10;;;3.95;;
7931;SDS011;4011;49.424;10.894;2023-11-22T13:22:42;5.00;;;3.85;;
7931;SDS011;4011;49.424;10.894;2023-11-22T13:28:05;5.30;;;3.90;;
7931;SDS011;4011;49.424;10.894;2023-11-22T13:33:26;5.15;;;3.83;;
7931;SDS011;4011;49.424;10.894;2023-11-22T13:38:48;5.15;;;3.60;;
7931;SDS011;4011;49.424;10.894;2023-11-22T13:44:11;4.53;;;3.42;;
7931;SDS011;4011;49.424;10.894;2023-11-22T13:49:33;4.97;;;3.42;;
7931;SDS011;4011;49.424;10.894;2023-11-22T13:54:56;4.65;;;3.53;;
7931;SDS011;4011;49.424;10.894;2023-11-22T14:00:19;5.03;;;3.70;;
7931;SDS011;4011;49.424;10.894;2023-11-22T14:05:42;4.88;;;3.28;;
7931;SDS011;4011;49.424;10.894;2023-11-22T14:11:04;5.15;;;3.60;;
7931;SDS011;4011;49.424;10.894;2023-11-22T14:16:27;5.05;;;3.80;;
7931;SDS011;4011;49.424;10.894;2023-11-22T14:21:50;4.85;;;3.47;;
7931;SDS011;4011;49.424;10.894;2023-11-22T14:27:12;5.07;;;4.03;;
7931;SDS011;4011;49.424;10.894;2023-11-22T14:32:34;4.60;;;3.30;;
7931;SDS011;4011;49.424;10.894;2023-11-22T14:37:56;4.95;;;3.53;;
7931;SDS011;4011;49.424;10.894;2023-11-22T14:43:18;5.30;;;3.60;;
7931;SDS011;4011;49.424;10.894;2023-11-22T14:48:41;5.97;;;3.47;;
7931;SDS011;4011;49.424;10.894;2023-11-22T14:54:02;5.13;;;3.60;;
7931;SDS011;4011;49.424;10.894;2023-11-22T14:59:24;5.75;;;3.78;;
7931;SDS011;4011;49.424;10.894;2023-11-22T15:04:47;5.10;;;3.75;;
7931;SDS011;4011;49.424;10.894;2023-11-22T15:10:09;5.93;;;3.67;;
7931;SDS011;4011;49.424;10.894;2023-11-22T15:15:31;4.95;;;3.40;;
7931;SDS011;4011;49.424;10.894;2023-11-22T15:20:54;5.05;;;3.40;;
7931;SDS011;4011;49.424;10.894;2023-11-22T15:26:15;5.70;;;3.53;;
7931;SDS011;4011;49.424;10.894;2023-11-22T15:31:37;4.75;;;3.80;;
7931;SDS011;4011;49.424;10.894;2023-11-22T15:37:02;4.88;;;3.70;;
7931;SDS011;4011;49.424;10.894;2023-11-22T15:42:23;4.72;;;3.67;;
7931;SDS011;4011;49.424;10.894;2023-11-22T15:47:44;4.85;;;3.58;;
7931;SDS011;4011;49.424;10.894;2023-11-22T15:53:07;4.68;;;3.67;;
7931;SDS011;4011;49.424;10.894;2023-11-22T15:58:32;5.38;;;3.75;;
7931;SDS011;4011;49.424;10.894;2023-11-22T16:03:54;7.15;;;4.15;;
7931;SDS011;4011;49.424;10.894;2023-11-22T16:09:16;6.13;;;3.47;;
7931;SDS011;4011;49.424;10.894;2023-11-22T16:14:38;6.85;;;3.88;;
7931;SDS011;4011;49.424;10.894;2023-11-22T16:20:00;5.75;;;3.60;;
7931;SDS011;4011;49.424;10.894;2023-11-22T16:25:25;5.90;;;3.80;;
7931;SDS011;4011;49.424;10.894;2023-11-22T16:30:47;6.88;;;3.90;;
7931;SDS011;4011;49.424;10.894;2023-11-22T16:36:08;6.15;;;3.85;;
7931;SDS011;4011;49.424;10.894;2023-11-22T16:41:32;5.57;;;4.30;;
7931;SDS011;4011;49.424;10.894;2023-11-22T16:46:54;7.40;;;4.15;;
7931;SDS011;4011;49.424;10.894;2023-11-22T16:52:15;7.00;;;4.13;;
7931;SDS011;4011;49.424;10.894;2023-11-22T16:57:38;5.72;;;3.78;;
7931;SDS011;4011;49.424;10.894;2023-11-22T17:03:00;6.85;;;4.22;;
7931;SDS011;4011;49.424;10.894;2023-11-22T17:08:22;5.97;;;4.28;;
7931;SDS011;4011;49.424;10.894;2023-11-22T17:13:45;6.15;;;4.30;;
7931;SDS011;4011;49.424;10.894;2023-11-22T17:19:06;5.05;;;3.90;;
7931;SDS011;4011;49.424;10.894;2023-11-22T17:24:27;6.15;;;4.30;;
7931;SDS011;4011;49.424;10.894;2023-11-22T17:29:50;5.45;;;3.90;;
7931;SDS011;4011;49.424;10.894;2023-11-22T17:35:14;6.20;;;3.85;;
7931;SDS011;4011;49.424;10.894;2023-11-22T17:40:35;5.47;;;4.13;;
7931;SDS011;4011;49.424;10.894;2023-11-22T17:45:58;5.60;;;4.15;;
7931;SDS011;4011;49.424;10.894;2023-11-22T17:51:19;5.40;;;3.97;;
7931;SDS011;4011;49.424;10.894;2023-11-22T17:56:41;6.28;;;4.35;;
7931;SDS011;4011;49.424;10.894;2023-11-22T18:02:04;4.82;;;3.80;;
7931;SDS011;4011;49.424;10.894;2023-11-22T18:07:25;5.10;;;3.75;;
7931;SDS011;4011;49.424;10.894;2023-11-22T18:12:47;6.15;;;3.90;;
7931;SDS011;4011;49.424;10.894;2023-11-22T18:18:11;4.82;;;3.42;;
7931;SDS011;4011;49.424;10.894;2023-11-22T18:23:32;5.97;;;4.10;;
7931;SDS011;4011;49.424;10.894;2023-11-22T18:28:53;5.28;;;3.92;;
7931;SDS011;4011;49.424;10.894;2023-11-22T18:34:16;9.82;;;4.65;;
7931;SDS011;4011;49.424;10.894;2023-11-22T18:39:37;6.03;;;4.03;;
7931;SDS011;4011;49.424;10.894;2023-11-22T18:44:59;8.90;;;4.22;;
7931;SDS011;4011;49.424;10.894;2023-11-22T18:50:22;7.68;;;4.50;;
7931;SDS011;4011;49.424;10.894;2023-11-22T18:55:44;8.95;;;4.90;;
7931;SDS011;4011;49.424;10.894;2023-11-22T19:01:05;8.05;;;4.25;;
7931;SDS011;4011;49.424;10.894;2023-11-22T19:06:28;7.82;;;4.72;;
7931;SDS011;4011;49.424;10.894;2023-11-22T19:11:50;6.32;;;4.22;;
7931;SDS011;4011;49.424;10.894;2023-11-22T19:17:11;5.65;;;4.63;;
7931;SDS011;4011;49.424;10.894;2023-11-22T19:22:34;5.93;;;4.28;;
7931;SDS011;4011;49.424;10.894;2023-11-22T19:27:55;6.80;;;4.20;;
7931;SDS011;4011;49.424;10.894;2023-11-22T19:33:17;6.97;;;3.97;;
7931;SDS011;4011;49.424;10.894;2023-11-22T19:38:39;5.47;;;3.92;;
7931;SDS011;4011;49.424;10.894;2023-11-22T19:44:01;5.93;;;3.67;;
7931;SDS011;4011;49.424;10.894;2023-11-22T19:49:22;6.45;;;4.10;;
7931;SDS011;4011;49.424;10.894;2023-11-22T19:54:45;6.70;;;4.45;;
7931;SDS011;4011;49.424;10.894;2023-11-22T20:00:07;5.18;;;3.58;;
7931;SDS011;4011;49.424;10.894;2023-11-22T20:05:28;5.03;;;3.67;;
7931;SDS011;4011;49.424;10.894;2023-11-22T20:10:51;5.45;;;3.40;;
7931;SDS011;4011;49.424;10.894;2023-11-22T20:16:12;5.32;;;3.42;;
7931;SDS011;4011;49.424;10.894;2023-11-22T20:21:33;4.80;;;3.60;;
7931;SDS011;4011;49.424;10.894;2023-11-22T20:26:57;5.03;;;3.35;;
7931;SDS011;4011;49.424;10.894;2023-11-22T20:32:19;4.60;;;3.67;;
7931;SDS011;4011;49.424;10.894;2023-11-22T20:37:41;5.28;;;3.60;;
7931;SDS011;4011;49.424;10.894;2023-11-22T20:43:04;4.53;;;3.33;;
7931;SDS011;4011;49.424;10.894;2023-11-22T20:48:25;4.40;;;3.38;;
7931;SDS011;4011;49.424;10.894;2023-11-22T20:53:47;4.28;;;3.40;;
7931;SDS011;4011;49.424;10.894;2023-11-22T20:59:10;5.30;;;3.55;;
7931;SDS011;4011;49.424;10.894;2023-11-22T21:04:31;4.93;;;3.15;;
7931;SDS011;4011;49.424;10.894;2023-11-22T21:09:53;4.30;;;3.22;;
7931;SDS011;4011;49.424;10.894;2023-11-22T21:15:16;4.72;;;3.50;;
7931;SDS011;4011;49.424;10.894;2023-11-22T21:20:38;4.07;;;3.08;;
7931;SDS011;4011;49.424;10.894;2023-11-22T21:26:00;4.20;;;3.35;;
7931;SDS011;4011;49.424;10.894;2023-11-22T21:31:23;4.60;;;3.25;;
7931;SDS011;4011;49.424;10.894;2023-11-22T21:36:44;4.65;;;3.60;;
7931;SDS011;4011;49.424;10.894;2023-11-22T21:42:06;4.20;;;3.30;;
7931;SDS011;4011;49.424;10.894;2023-11-22T21:47:29;4.53;;;3.20;;
7931;SDS011;4011;49.424;10.894;2023-11-22T21:52:50;4.40;;;3.10;;
7931;SDS011;4011;49.424;10.894;2023-11-22T21:58:12;4.43;;;3.35;;
7931;SDS011;4011;49.424;10.894;2023-11-22T22:03:35;4.20;;;2.90;;
7931;SDS011;4011;49.424;10.894;2023-11-22T22:08:59;5.47;;;3.28;;
7931;SDS011;4011;49.424;10.894;2023-11-22T22:14:20;5.00;;;3.15;;
7931;SDS011;4011;49.424;10.894;2023-11-22T22:19:44;3.80;;;2.85;;
7931;SDS011;4011;49.424;10.894;2023-11-22T22:25:06;5.10;;;3.15;;
7931;SDS011;4011;49.424;10.894;2023-11-22T22:30:27;4.43;;;3.05;;
7931;SDS011;4011;49.424;10.894;2023-11-22T22:35:50;3.80;;;2.72;;
7931;SDS011;4011;49.424;10.894;2023-11-22T22:41:15;4.03;;;2.88;;
7931;SDS011;4011;49.424;10.894;2023-11-22T22:46:38;4.40;;;3.40;;
7931;SDS011;4011;49.424;10.894;2023-11-22T22:52:01;4.70;;;3.40;;
7931;SDS011;4011;49.424;10.894;2023-11-22T22:57:22;4.82;;;3.13;;
7931;SDS011;4011;49.424;10.894;2023-11-22T23:02:43;4.78;;;3.17;;
7931;SDS011;4011;49.424;10.894;2023-11-22T23:08:06;4.47;;;3.42;;
7931;SDS011;4011;49.424;10.894;2023-11-22T23:13:29;4.25;;;3.05;;
7931;SDS011;4011;49.424;10.894;2023-11-22T23:18:50;4.15;;;3.00;;
7931;SDS011;4011;49.424;10.894;2023-11-22T23:24:13;4.55;;;3.10;;
7931;SDS011;4011;49.424;10.894;2023-11-22T23:29:34;4.00;;;2.92;;
7931;SDS011;4011;49.424;10.894;2023-11-22T23:34:59;4.38;;;3.42;;
7931;SDS011;4011;49.424;10.894;2023-11-22T23:40:22;5.07;;;3.50;;
7931;SDS011;4011;49.424;10.894;2023-11-22T23:45:45;4.68;;;3.10;;
7931;SDS011;4011;49.424;10.894;2023-11-22T23:56:33;4.78;;;3.13;;
